sensor_id;sensor_type;location;lat;lon;timestamp;pressure;altitude;pressure_sealevel;temperature;humidity
56582;BME280;42463;52.214;21.238;2023-07-24T00:01:57;99496.44;;;22.37;53.28
56582;BME280;42463;52.214;21.238;2023-07-24T00:04:05;99492.42;;;22.38;53.23
56582;BME280;42463;52.214;21.238;2023-07-24T00:06:11;99498.45;;;22.39;53.05
56582;BME280;42463;52.214;21.238;2023-07-24T00:08:17;99495.02;;;22.38;53.03
56582;BME280;42463;52.214;21.238;2023-07-24T00:10:23;99492.92;;;22.36;52.86
56582;BME280;42463;52.214;21.238;2023-07-24T00:12:29;99492.73;;;22.35;53.02
56582;BME280;42463;52.214;21.238;2023-07-24T00:14:36;99488.69;;;22.35;53.00
56582;BME280;42463;52.214;21.238;2023-07-24T00:16:42;99487.80;;;22.34;53.13
56582;BME280;42463;52.214;21.238;2023-07-24T00:18:51;99480.75;;;22.33;53.13
56582;BME280;42463;52.214;21.238;2023-07-24T00:20:57;99477.98;;;22.32;53.20
56582;BME280;42463;52.214;21.238;2023-07-24T00:23:03;99472.02;;;22.31;52.96
56582;BME280;42463;52.214;21.238;2023-07-24T00:25:10;99482.79;;;22.29;53.11
56582;BME280;42463;52.214;21.238;2023-07-24T00:27:21;99487.35;;;22.25;53.22
56582;BME280;42463;52.214;21.238;2023-07-24T00:29:28;99485.52;;;22.21;53.36
56582;BME280;42463;52.214;21.238;2023-07-24T00:31:35;99487.95;;;22.18;52.84
56582;BME280;42463;52.214;21.238;2023-07-24T00:33:42;99491.13;;;22.16;53.14
56582;BME280;42463;52.214;21.238;2023-07-24T00:35:49;99493.20;;;22.13;52.72
56582;BME280;42463;52.214;21.238;2023-07-24T00:37:55;99495.19;;;22.11;53.02
56582;BME280;42463;52.214;21.238;2023-07-24T00:40:01;99495.30;;;22.10;53.12
56582;BME280;42463;52.214;21.238;2023-07-24T00:42:08;99489.60;;;22.09;53.36
56582;BME280;42463;52.214;21.238;2023-07-24T00:44:14;99489.77;;;22.07;52.98
56582;BME280;42463;52.214;21.238;2023-07-24T00:46:21;99490.45;;;22.03;52.89
56582;BME280;42463;52.214;21.238;2023-07-24T00:48:27;99491.31;;;22.03;52.89
56582;BME280;42463;52.214;21.238;2023-07-24T00:50:33;99491.44;;;22.02;52.87
56582;BME280;42463;52.214;21.238;2023-07-24T00:52:41;99493.92;;;22.01;53.02
56582;BME280;42463;52.214;21.238;2023-07-24T00:54:50;99492.39;;;21.99;53.43
56582;BME280;42463;52.214;21.238;2023-07-24T00:57:03;99490.96;;;21.99;53.42
56582;BME280;42463;52.214;21.238;2023-07-24T00:59:10;99492.68;;;22.01;53.24
56582;BME280;42463;52.214;21.238;2023-07-24T01:03:50;99499.38;;;22.01;52.81
56582;BME280;42463;52.214;21.238;2023-07-24T01:05:57;99498.66;;;22.01;52.87
56582;BME280;42463;52.214;21.238;2023-07-24T01:08:08;99499.90;;;21.99;52.80
56582;BME280;42463;52.214;21.238;2023-07-24T01:10:16;99500.98;;;21.98;52.80
56582;BME280;42463;52.214;21.238;2023-07-24T01:12:26;99505.48;;;22.02;52.76
56582;BME280;42463;52.214;21.238;2023-07-24T01:14:40;99507.29;;;22.02;52.80
56582;BME280;42463;52.214;21.238;2023-07-24T01:16:49;99506.73;;;21.98;52.57
56582;BME280;42463;52.214;21.238;2023-07-24T01:18:58;99509.64;;;21.95;52.85
56582;BME280;42463;52.214;21.238;2023-07-24T01:21:12;99513.94;;;21.93;52.87
56582;BME280;42463;52.214;21.238;2023-07-24T01:23:44;99513.41;;;21.92;52.77
56582;BME280;42463;52.214;21.238;2023-07-24T01:25:57;99512.45;;;21.91;52.97
56582;BME280;42463;52.214;21.238;2023-07-24T01:28:07;99508.95;;;21.93;52.96
56582;BME280;42463;52.214;21.238;2023-07-24T01:30:16;99511.48;;;21.93;52.74
56582;BME280;42463;52.214;21.238;2023-07-24T01:32:22;99509.95;;;21.92;52.92
56582;BME280;42463;52.214;21.238;2023-07-24T01:34:28;99513.55;;;21.91;52.88
56582;BME280;42463;52.214;21.238;2023-07-24T01:36:33;99513.07;;;21.91;53.01
56582;BME280;42463;52.214;21.238;2023-07-24T01:38:39;99514.08;;;21.90;53.14
56582;BME280;42463;52.214;21.238;2023-07-24T01:40:46;99514.15;;;21.90;52.87
56582;BME280;42463;52.214;21.238;2023-07-24T01:42:52;99511.34;;;21.91;52.78
56582;BME280;42463;52.214;21.238;2023-07-24T01:44:58;99510.28;;;21.93;52.89
56582;BME280;42463;52.214;21.238;2023-07-24T01:47:03;99507.36;;;21.92;52.79
56582;BME280;42463;52.214;21.238;2023-07-24T01:49:09;99504.70;;;21.94;52.97
56582;BME280;42463;52.214;21.238;2023-07-24T01:51:15;99500.95;;;21.92;52.67
56582;BME280;42463;52.214;21.238;2023-07-24T01:53:21;99500.34;;;21.93;52.92
56582;BME280;42463;52.214;21.238;2023-07-24T01:55:27;99502.83;;;21.91;52.94
56582;BME280;42463;52.214;21.238;2023-07-24T01:57:35;99502.11;;;21.91;52.73
56582;BME280;42463;52.214;21.238;2023-07-24T01:59:41;99504.90;;;21.92;52.76
56582;BME280;42463;52.214;21.238;2023-07-24T02:01:46;99503.94;;;21.91;53.03
56582;BME280;42463;52.214;21.238;2023-07-24T02:03:55;99502.16;;;21.90;52.90
56582;BME280;42463;52.214;21.238;2023-07-24T02:06:03;99499.30;;;21.89;53.09
56582;BME280;42463;52.214;21.238;2023-07-24T02:08:24;99503.16;;;21.89;53.00
56582;BME280;42463;52.214;21.238;2023-07-24T02:10:31;99502.02;;;21.88;52.75
56582;BME280;42463;52.214;21.238;2023-07-24T02:12:38;99503.21;;;21.88;52.86
56582;BME280;42463;52.214;21.238;2023-07-24T02:14:43;99501.19;;;21.89;52.84
56582;BME280;42463;52.214;21.238;2023-07-24T02:16:49;99499.62;;;21.89;52.86
56582;BME280;42463;52.214;21.238;2023-07-24T02:18:56;99498.77;;;21.90;52.94
56582;BME280;42463;52.214;21.238;2023-07-24T02:21:02;99499.22;;;21.92;52.76
56582;BME280;42463;52.214;21.238;2023-07-24T02:23:09;99499.46;;;21.92;52.50
56582;BME280;42463;52.214;21.238;2023-07-24T02:25:17;99499.81;;;21.91;52.60
56582;BME280;42463;52.214;21.238;2023-07-24T02:27:31;99499.55;;;21.87;52.50
56582;BME280;42463;52.214;21.238;2023-07-24T02:29:38;99497.70;;;21.84;52.65
56582;BME280;42463;52.214;21.238;2023-07-24T02:31:47;99493.48;;;21.82;52.34
56582;BME280;42463;52.214;21.238;2023-07-24T02:33:54;99496.36;;;21.81;52.33
56582;BME280;42463;52.214;21.238;2023-07-24T02:36:02;99491.44;;;21.80;52.23
56582;BME280;42463;52.214;21.238;2023-07-24T02:38:08;99489.42;;;21.82;52.24
56582;BME280;42463;52.214;21.238;2023-07-24T02:40:14;99489.63;;;21.83;52.38
56582;BME280;42463;52.214;21.238;2023-07-24T02:42:20;99489.54;;;21.83;52.42
56582;BME280;42463;52.214;21.238;2023-07-24T02:44:27;99488.19;;;21.85;52.28
56582;BME280;42463;52.214;21.238;2023-07-24T02:46:33;99491.19;;;21.85;52.23
56582;BME280;42463;52.214;21.238;2023-07-24T02:48:42;99487.49;;;21.83;52.35
56582;BME280;42463;52.214;21.238;2023-07-24T02:50:50;99489.36;;;21.82;52.34
56582;BME280;42463;52.214;21.238;2023-07-24T02:53:00;99495.46;;;21.80;52.03
56582;BME280;42463;52.214;21.238;2023-07-24T02:55:08;99505.11;;;21.78;52.17
56582;BME280;42463;52.214;21.238;2023-07-24T02:57:13;99503.62;;;21.78;52.74
56582;BME280;42463;52.214;21.238;2023-07-24T02:59:19;99503.55;;;21.79;53.05
56582;BME280;42463;52.214;21.238;2023-07-24T03:01:25;99505.20;;;21.79;52.87
56582;BME280;42463;52.214;21.238;2023-07-24T03:03:31;99499.86;;;21.79;52.97
56582;BME280;42463;52.214;21.238;2023-07-24T03:05:36;99502.39;;;21.80;52.51
56582;BME280;42463;52.214;21.238;2023-07-24T03:07:42;99501.52;;;21.80;52.76
56582;BME280;42463;52.214;21.238;2023-07-24T03:09:48;99499.75;;;21.78;52.09
56582;BME280;42463;52.214;21.238;2023-07-24T03:11:55;99501.64;;;21.78;51.72
56582;BME280;42463;52.214;21.238;2023-07-24T03:14:02;99506.61;;;21.78;51.77
56582;BME280;42463;52.214;21.238;2023-07-24T03:16:08;99507.27;;;21.79;51.57
56582;BME280;42463;52.214;21.238;2023-07-24T03:18:13;99513.84;;;21.80;51.34
56582;BME280;42463;52.214;21.238;2023-07-24T03:20:20;99514.96;;;21.81;52.20
56582;BME280;42463;52.214;21.238;2023-07-24T03:22:26;99512.53;;;21.81;52.81
56582;BME280;42463;52.214;21.238;2023-07-24T03:24:31;99517.39;;;21.80;53.03
56582;BME280;42463;52.214;21.238;2023-07-24T03:26:37;99517.92;;;21.80;53.20
56582;BME280;42463;52.214;21.238;2023-07-24T03:28:42;99522.21;;;21.77;52.83
56582;BME280;42463;52.214;21.238;2023-07-24T03:30:49;99522.83;;;21.77;52.41
56582;BME280;42463;52.214;21.238;2023-07-24T03:32:54;99525.02;;;21.77;52.23
56582;BME280;42463;52.214;21.238;2023-07-24T03:35:00;99525.50;;;21.77;52.01
56582;BME280;42463;52.214;21.238;2023-07-24T03:37:06;99523.80;;;21.78;51.62
56582;BME280;42463;52.214;21.238;2023-07-24T03:39:12;99528.36;;;21.75;51.50
56582;BME280;42463;52.214;21.238;2023-07-24T03:41:17;99527.70;;;21.74;51.47
56582;BME280;42463;52.214;21.238;2023-07-24T03:43:23;99530.00;;;21.72;51.61
56582;BME280;42463;52.214;21.238;2023-07-24T03:45:30;99534.11;;;21.69;51.91
56582;BME280;42463;52.214;21.238;2023-07-24T03:47:36;99534.55;;;21.68;52.39
56582;BME280;42463;52.214;21.238;2023-07-24T03:49:41;99536.36;;;21.68;52.01
56582;BME280;42463;52.214;21.238;2023-07-24T03:51:47;99538.16;;;21.67;52.29
56582;BME280;42463;52.214;21.238;2023-07-24T03:53:55;99538.66;;;21.68;52.53
56582;BME280;42463;52.214;21.238;2023-07-24T03:56:00;99537.16;;;21.68;52.45
56582;BME280;42463;52.214;21.238;2023-07-24T03:58:06;99541.48;;;21.67;53.01
56582;BME280;42463;52.214;21.238;2023-07-24T04:00:13;99542.27;;;21.68;53.12
56582;BME280;42463;52.214;21.238;2023-07-24T04:02:19;99544.73;;;21.68;52.54
56582;BME280;42463;52.214;21.238;2023-07-24T04:04:25;99540.98;;;21.69;52.59
56582;BME280;42463;52.214;21.238;2023-07-24T04:06:30;99538.06;;;21.70;51.80
56582;BME280;42463;52.214;21.238;2023-07-24T04:08:36;99535.91;;;21.72;51.58
56582;BME280;42463;52.214;21.238;2023-07-24T04:10:41;99539.83;;;21.73;51.62
56582;BME280;42463;52.214;21.238;2023-07-24T04:12:47;99543.44;;;21.73;51.70
56582;BME280;42463;52.214;21.238;2023-07-24T04:14:52;99541.28;;;21.72;51.52
56582;BME280;42463;52.214;21.238;2023-07-24T04:16:58;99540.58;;;21.72;51.90
56582;BME280;42463;52.214;21.238;2023-07-24T04:19:04;99539.55;;;21.72;51.79
56582;BME280;42463;52.214;21.238;2023-07-24T04:21:10;99535.00;;;21.73;52.12
56582;BME280;42463;52.214;21.238;2023-07-24T04:23:16;99536.30;;;21.74;52.56
56582;BME280;42463;52.214;21.238;2023-07-24T04:25:26;99533.23;;;21.77;52.77
56582;BME280;42463;52.214;21.238;2023-07-24T04:27:32;99528.90;;;21.80;52.52
56582;BME280;42463;52.214;21.238;2023-07-24T04:29:37;99531.61;;;21.81;52.51
56582;BME280;42463;52.214;21.238;2023-07-24T04:31:43;99532.23;;;21.81;52.23
56582;BME280;42463;52.214;21.238;2023-07-24T04:33:49;99530.25;;;21.80;51.94
56582;BME280;42463;52.214;21.238;2023-07-24T04:35:55;99528.87;;;21.82;51.75
56582;BME280;42463;52.214;21.238;2023-07-24T04:38:01;99531.19;;;21.83;51.77
56582;BME280;42463;52.214;21.238;2023-07-24T04:40:12;99530.94;;;21.84;52.00
56582;BME280;42463;52.214;21.238;2023-07-24T04:42:17;99529.84;;;21.87;51.94
56582;BME280;42463;52.214;21.238;2023-07-24T04:44:23;99530.64;;;21.90;52.06
56582;BME280;42463;52.214;21.238;2023-07-24T04:46:28;99528.52;;;21.93;51.92
56582;BME280;42463;52.214;21.238;2023-07-24T04:48:34;99526.35;;;21.95;51.91
56582;BME280;42463;52.214;21.238;2023-07-24T04:50:39;99530.40;;;21.95;51.83
56582;BME280;42463;52.214;21.238;2023-07-24T04:52:44;99530.42;;;21.96;51.61
56582;BME280;42463;52.214;21.238;2023-07-24T04:54:50;99534.08;;;21.97;51.65
56582;BME280;42463;52.214;21.238;2023-07-24T04:56:56;99538.17;;;21.99;51.41
56582;BME280;42463;52.214;21.238;2023-07-24T04:59:01;99537.84;;;22.02;51.63
56582;BME280;42463;52.214;21.238;2023-07-24T05:01:06;99537.99;;;22.04;51.14
56582;BME280;42463;52.214;21.238;2023-07-24T05:03:13;99540.17;;;22.05;51.28
56582;BME280;42463;52.214;21.238;2023-07-24T05:05:21;99539.05;;;22.07;51.18
56582;BME280;42463;52.214;21.238;2023-07-24T05:07:26;99537.73;;;22.08;50.99
56582;BME280;42463;52.214;21.238;2023-07-24T05:09:34;99537.90;;;22.09;51.47
56582;BME280;42463;52.214;21.238;2023-07-24T05:11:39;99538.27;;;22.10;51.04
56582;BME280;42463;52.214;21.238;2023-07-24T05:13:46;99533.72;;;22.12;51.05
56582;BME280;42463;52.214;21.238;2023-07-24T05:15:52;99530.14;;;22.13;51.02
56582;BME280;42463;52.214;21.238;2023-07-24T05:17:57;99536.42;;;22.18;51.31
56582;BME280;42463;52.214;21.238;2023-07-24T05:20:03;99538.20;;;22.25;51.51
56582;BME280;42463;52.214;21.238;2023-07-24T05:22:09;99531.55;;;22.30;51.76
56582;BME280;42463;52.214;21.238;2023-07-24T05:24:15;99535.78;;;22.35;51.15
56582;BME280;42463;52.214;21.238;2023-07-24T05:26:21;99538.31;;;22.39;50.59
56582;BME280;42463;52.214;21.238;2023-07-24T05:28:27;99542.95;;;22.44;50.42
56582;BME280;42463;52.214;21.238;2023-07-24T05:30:33;99546.48;;;22.49;50.37
56582;BME280;42463;52.214;21.238;2023-07-24T05:32:39;99540.48;;;22.52;50.20
56582;BME280;42463;52.214;21.238;2023-07-24T05:34:45;99533.39;;;22.56;50.60
56582;BME280;42463;52.214;21.238;2023-07-24T05:36:50;99535.34;;;22.58;49.90
56582;BME280;42463;52.214;21.238;2023-07-24T05:38:56;99538.06;;;22.59;50.08
56582;BME280;42463;52.214;21.238;2023-07-24T05:41:03;99541.42;;;22.61;49.67
56582;BME280;42463;52.214;21.238;2023-07-24T05:43:09;99539.33;;;22.62;49.99
56582;BME280;42463;52.214;21.238;2023-07-24T05:45:15;99543.20;;;22.66;50.50
56582;BME280;42463;52.214;21.238;2023-07-24T05:47:21;99538.45;;;22.68;50.16
56582;BME280;42463;52.214;21.238;2023-07-24T05:49:26;99535.98;;;22.71;49.56
56582;BME280;42463;52.214;21.238;2023-07-24T05:51:32;99540.16;;;22.73;49.62
56582;BME280;42463;52.214;21.238;2023-07-24T05:53:37;99544.96;;;22.76;50.36
56582;BME280;42463;52.214;21.238;2023-07-24T05:55:43;99540.01;;;22.77;50.30
56582;BME280;42463;52.214;21.238;2023-07-24T05:57:49;99538.59;;;22.79;49.94
56582;BME280;42463;52.214;21.238;2023-07-24T05:59:56;99538.83;;;22.82;49.69
56582;BME280;42463;52.214;21.238;2023-07-24T06:02:01;99542.90;;;22.84;49.76
56582;BME280;42463;52.214;21.238;2023-07-24T06:04:07;99546.38;;;22.84;50.00
56582;BME280;42463;52.214;21.238;2023-07-24T06:06:12;99544.33;;;22.84;49.75
56582;BME280;42463;52.214;21.238;2023-07-24T06:08:18;99547.38;;;22.83;49.45
56582;BME280;42463;52.214;21.238;2023-07-24T06:10:25;99547.70;;;22.83;49.51
56582;BME280;42463;52.214;21.238;2023-07-24T06:12:36;99549.36;;;22.83;49.02
56582;BME280;42463;52.214;21.238;2023-07-24T06:14:43;99550.16;;;22.83;49.25
56582;BME280;42463;52.214;21.238;2023-07-24T06:16:50;99549.09;;;22.85;49.72
56582;BME280;42463;52.214;21.238;2023-07-24T06:18:56;99550.00;;;22.86;49.39
56582;BME280;42463;52.214;21.238;2023-07-24T06:21:04;99550.05;;;22.90;49.34
56582;BME280;42463;52.214;21.238;2023-07-24T06:23:10;99555.21;;;22.95;49.45
56582;BME280;42463;52.214;21.238;2023-07-24T06:25:16;99557.33;;;22.98;49.88
56582;BME280;42463;52.214;21.238;2023-07-24T06:27:22;99562.31;;;22.98;49.58
56582;BME280;42463;52.214;21.238;2023-07-24T06:29:28;99564.95;;;23.00;49.52
56582;BME280;42463;52.214;21.238;2023-07-24T06:31:34;99563.67;;;22.99;49.41
56582;BME280;42463;52.214;21.238;2023-07-24T06:33:41;99557.39;;;22.97;48.79
56582;BME280;42463;52.214;21.238;2023-07-24T06:35:47;99553.67;;;22.93;48.05
56582;BME280;42463;52.214;21.238;2023-07-24T06:37:52;99556.61;;;22.90;48.45
56582;BME280;42463;52.214;21.238;2023-07-24T06:39:59;99547.63;;;22.92;48.77
56582;BME280;42463;52.214;21.238;2023-07-24T06:42:05;99546.77;;;22.96;48.74
56582;BME280;42463;52.214;21.238;2023-07-24T06:44:11;99556.59;;;23.00;48.88
56582;BME280;42463;52.214;21.238;2023-07-24T06:46:16;99547.48;;;23.02;49.35
56582;BME280;42463;52.214;21.238;2023-07-24T06:48:22;99549.34;;;23.04;48.88
56582;BME280;42463;52.214;21.238;2023-07-24T06:50:28;99552.71;;;23.06;48.62
56582;BME280;42463;52.214;21.238;2023-07-24T06:52:33;99549.46;;;23.09;48.54
56582;BME280;42463;52.214;21.238;2023-07-24T06:54:39;99548.42;;;23.12;48.94
56582;BME280;42463;52.214;21.238;2023-07-24T06:56:44;99544.95;;;23.16;48.43
56582;BME280;42463;52.214;21.238;2023-07-24T06:58:53;99549.24;;;23.20;48.37
56582;BME280;42463;52.214;21.238;2023-07-24T07:00:59;99552.61;;;23.19;48.15
56582;BME280;42463;52.214;21.238;2023-07-24T07:03:06;99547.51;;;23.20;47.90
56582;BME280;42463;52.214;21.238;2023-07-24T07:05:12;99544.65;;;23.23;48.60
56582;BME280;42463;52.214;21.238;2023-07-24T07:07:20;99548.96;;;23.25;48.49
56582;BME280;42463;52.214;21.238;2023-07-24T07:09:26;99547.34;;;23.26;47.94
56582;BME280;42463;52.214;21.238;2023-07-24T07:11:32;99544.52;;;23.28;47.66
56582;BME280;42463;52.214;21.238;2023-07-24T07:13:37;99543.38;;;23.30;47.15
56582;BME280;42463;52.214;21.238;2023-07-24T07:15:43;99542.05;;;23.34;47.41
56582;BME280;42463;52.214;21.238;2023-07-24T07:17:48;99543.98;;;23.39;47.44
56582;BME280;42463;52.214;21.238;2023-07-24T07:19:55;99547.21;;;23.45;47.33
56582;BME280;42463;52.214;21.238;2023-07-24T07:22:01;99547.70;;;23.53;47.67
56582;BME280;42463;52.214;21.238;2023-07-24T07:24:07;99545.79;;;23.59;47.02
56582;BME280;42463;52.214;21.238;2023-07-24T07:26:13;99545.35;;;23.64;47.23
56582;BME280;42463;52.214;21.238;2023-07-24T07:28:19;99549.16;;;23.68;46.68
56582;BME280;42463;52.214;21.238;2023-07-24T07:30:25;99548.56;;;23.69;46.37
56582;BME280;42463;52.214;21.238;2023-07-24T07:32:33;99553.30;;;23.73;46.57
56582;BME280;42463;52.214;21.238;2023-07-24T07:34:40;99548.98;;;23.78;46.78
56582;BME280;42463;52.214;21.238;2023-07-24T07:36:46;99548.38;;;23.83;45.83
56582;BME280;42463;52.214;21.238;2023-07-24T07:38:56;99547.60;;;23.88;46.19
56582;BME280;42463;52.214;21.238;2023-07-24T07:41:06;99544.83;;;23.94;45.67
56582;BME280;42463;52.214;21.238;2023-07-24T07:43:13;99543.60;;;24.00;45.16
56582;BME280;42463;52.214;21.238;2023-07-24T07:45:21;99543.64;;;24.06;45.26
56582;BME280;42463;52.214;21.238;2023-07-24T07:47:28;99548.14;;;24.13;45.81
56582;BME280;42463;52.214;21.238;2023-07-24T07:49:34;99553.41;;;24.19;45.97
56582;BME280;42463;52.214;21.238;2023-07-24T07:51:41;99550.13;;;24.26;45.22
56582;BME280;42463;52.214;21.238;2023-07-24T07:53:46;99551.23;;;24.34;45.69
56582;BME280;42463;52.214;21.238;2023-07-24T07:55:58;99548.81;;;24.39;45.60
56582;BME280;42463;52.214;21.238;2023-07-24T07:58:04;99545.16;;;24.47;45.55
56582;BME280;42463;52.214;21.238;2023-07-24T08:00:12;99546.68;;;24.57;45.49
56582;BME280;42463;52.214;21.238;2023-07-24T08:02:18;99546.27;;;24.65;45.70
56582;BME280;42463;52.214;21.238;2023-07-24T08:04:25;99544.58;;;24.72;45.41
56582;BME280;42463;52.214;21.238;2023-07-24T08:06:31;99543.80;;;24.78;44.75
56582;BME280;42463;52.214;21.238;2023-07-24T08:08:36;99545.71;;;24.83;44.43
56582;BME280;42463;52.214;21.238;2023-07-24T08:10:42;99545.15;;;24.88;44.70
56582;BME280;42463;52.214;21.238;2023-07-24T08:12:48;99545.29;;;24.92;44.92
56582;BME280;42463;52.214;21.238;2023-07-24T08:14:55;99544.71;;;24.95;44.71
56582;BME280;42463;52.214;21.238;2023-07-24T08:17:00;99544.98;;;24.98;44.04
56582;BME280;42463;52.214;21.238;2023-07-24T08:19:06;99546.69;;;25.01;44.12
56582;BME280;42463;52.214;21.238;2023-07-24T08:21:11;99546.11;;;25.05;44.71
56582;BME280;42463;52.214;21.238;2023-07-24T08:23:17;99543.88;;;25.09;44.42
56582;BME280;42463;52.214;21.238;2023-07-24T08:25:23;99545.73;;;25.16;43.62
56582;BME280;42463;52.214;21.238;2023-07-24T08:27:29;99541.98;;;25.20;42.83
56582;BME280;42463;52.214;21.238;2023-07-24T08:29:36;99542.48;;;25.22;43.01
56582;BME280;42463;52.214;21.238;2023-07-24T08:31:42;99545.27;;;25.23;43.53
56582;BME280;42463;52.214;21.238;2023-07-24T08:33:48;99541.76;;;25.26;42.92
56582;BME280;42463;52.214;21.238;2023-07-24T08:36:02;99547.83;;;25.29;44.05
56582;BME280;42463;52.214;21.238;2023-07-24T08:38:08;99547.08;;;25.32;43.62
56582;BME280;42463;52.214;21.238;2023-07-24T08:40:16;99545.33;;;25.37;43.72
56582;BME280;42463;52.214;21.238;2023-07-24T08:42:23;99548.58;;;25.42;43.89
56582;BME280;42463;52.214;21.238;2023-07-24T08:44:30;99547.15;;;25.48;44.35
56582;BME280;42463;52.214;21.238;2023-07-24T08:46:37;99546.52;;;25.53;44.06
56582;BME280;42463;52.214;21.238;2023-07-24T08:48:45;99545.63;;;25.58;43.70
56582;BME280;42463;52.214;21.238;2023-07-24T08:50:51;99544.77;;;25.64;43.16
56582;BME280;42463;52.214;21.238;2023-07-24T08:52:58;99540.33;;;25.69;42.76
56582;BME280;42463;52.214;21.238;2023-07-24T08:55:06;99539.98;;;25.73;42.08
56582;BME280;42463;52.214;21.238;2023-07-24T08:57:18;99537.02;;;25.77;42.37
56582;BME280;42463;52.214;21.238;2023-07-24T08:59:25;99535.26;;;25.82;42.66
56582;BME280;42463;52.214;21.238;2023-07-24T09:01:31;99531.77;;;25.89;42.61
56582;BME280;42463;52.214;21.238;2023-07-24T09:03:37;99531.42;;;25.94;42.80
56582;BME280;42463;52.214;21.238;2023-07-24T09:05:43;99529.45;;;26.00;42.99
56582;BME280;42463;52.214;21.238;2023-07-24T09:07:49;99524.77;;;26.06;42.69
56582;BME280;42463;52.214;21.238;2023-07-24T09:09:55;99526.16;;;26.10;42.60
56582;BME280;42463;52.214;21.238;2023-07-24T09:12:01;99526.84;;;26.15;43.04
56582;BME280;42463;52.214;21.238;2023-07-24T09:14:07;99524.66;;;26.19;41.35
56582;BME280;42463;52.214;21.238;2023-07-24T09:16:23;99520.80;;;26.20;41.53
56582;BME280;42463;52.214;21.238;2023-07-24T09:18:40;99516.39;;;26.25;42.82
56582;BME280;42463;52.214;21.238;2023-07-24T09:20:46;99515.82;;;26.31;42.30
56582;BME280;42463;52.214;21.238;2023-07-24T09:22:53;99519.69;;;26.34;42.31
56582;BME280;42463;52.214;21.238;2023-07-24T09:24:59;99513.61;;;26.37;41.42
56582;BME280;42463;52.214;21.238;2023-07-24T09:27:07;99512.30;;;26.42;40.90
56582;BME280;42463;52.214;21.238;2023-07-24T09:29:15;99507.73;;;26.46;40.72
56582;BME280;42463;52.214;21.238;2023-07-24T09:31:20;99504.66;;;26.49;40.72
56582;BME280;42463;52.214;21.238;2023-07-24T09:33:35;99502.31;;;26.54;42.07
56582;BME280;42463;52.214;21.238;2023-07-24T09:35:41;99497.22;;;26.62;43.27
56582;BME280;42463;52.214;21.238;2023-07-24T09:37:47;99493.80;;;26.72;42.15
56582;BME280;42463;52.214;21.238;2023-07-24T09:39:52;99489.02;;;26.81;41.45
56582;BME280;42463;52.214;21.238;2023-07-24T09:42:06;99486.83;;;26.85;40.49
56582;BME280;42463;52.214;21.238;2023-07-24T09:44:13;99485.27;;;26.87;40.34
56582;BME280;42463;52.214;21.238;2023-07-24T09:46:18;99488.92;;;26.87;40.29
56582;BME280;42463;52.214;21.238;2023-07-24T09:48:25;99484.63;;;26.89;40.37
56582;BME280;42463;52.214;21.238;2023-07-24T09:50:31;99481.05;;;26.89;41.16
56582;BME280;42463;52.214;21.238;2023-07-24T09:52:38;99475.88;;;26.88;40.93
56582;BME280;42463;52.214;21.238;2023-07-24T09:54:52;99472.23;;;26.90;40.70
56582;BME280;42463;52.214;21.238;2023-07-24T09:57:01;99472.33;;;26.93;40.59
56582;BME280;42463;52.214;21.238;2023-07-24T09:59:08;99470.75;;;26.94;40.69
56582;BME280;42463;52.214;21.238;2023-07-24T10:01:15;99471.02;;;26.97;40.63
56582;BME280;42463;52.214;21.238;2023-07-24T10:03:21;99469.30;;;26.99;40.49
56582;BME280;42463;52.214;21.238;2023-07-24T10:05:27;99458.59;;;27.03;40.05
56582;BME280;42463;52.214;21.238;2023-07-24T10:07:34;99457.69;;;27.05;40.03
56582;BME280;42463;52.214;21.238;2023-07-24T10:09:41;99452.86;;;27.10;39.32
56582;BME280;42463;52.214;21.238;2023-07-24T10:11:48;99446.90;;;27.12;39.25
56582;BME280;42463;52.214;21.238;2023-07-24T10:13:55;99443.43;;;27.18;39.37
56582;BME280;42463;52.214;21.238;2023-07-24T10:16:02;99434.63;;;27.23;39.40
56582;BME280;42463;52.214;21.238;2023-07-24T10:18:14;99435.36;;;27.28;39.93
56582;BME280;42463;52.214;21.238;2023-07-24T10:20:21;99438.09;;;27.32;40.60
56582;BME280;42463;52.214;21.238;2023-07-24T10:22:29;99434.05;;;27.36;40.79
56582;BME280;42463;52.214;21.238;2023-07-24T10:24:35;99422.84;;;27.40;40.46
56582;BME280;42463;52.214;21.238;2023-07-24T10:26:41;99430.34;;;27.42;40.83
56582;BME280;42463;52.214;21.238;2023-07-24T10:28:49;99428.20;;;27.43;40.62
56582;BME280;42463;52.214;21.238;2023-07-24T10:30:57;99428.13;;;27.46;40.19
56582;BME280;42463;52.214;21.238;2023-07-24T10:33:08;99425.84;;;27.50;39.77
56582;BME280;42463;52.214;21.238;2023-07-24T10:35:14;99425.45;;;27.54;40.77
56582;BME280;42463;52.214;21.238;2023-07-24T10:37:21;99422.71;;;27.61;39.53
56582;BME280;42463;52.214;21.238;2023-07-24T10:39:57;99424.59;;;27.75;39.26
56582;BME280;42463;52.214;21.238;2023-07-24T10:42:23;99418.10;;;27.91;39.38
56582;BME280;42463;52.214;21.238;2023-07-24T10:44:33;99419.38;;;27.97;38.74
56582;BME280;42463;52.214;21.238;2023-07-24T10:46:40;99416.04;;;27.95;37.21
56582;BME280;42463;52.214;21.238;2023-07-24T10:48:47;99409.50;;;27.93;38.01
56582;BME280;42463;52.214;21.238;2023-07-24T10:50:54;99409.59;;;27.95;38.37
56582;BME280;42463;52.214;21.238;2023-07-24T10:53:02;99409.02;;;27.98;38.58
56582;BME280;42463;52.214;21.238;2023-07-24T10:55:09;99401.55;;;28.03;38.37
56582;BME280;42463;52.214;21.238;2023-07-24T10:57:14;99389.27;;;28.07;38.31
56582;BME280;42463;52.214;21.238;2023-07-24T10:59:20;99383.66;;;28.12;38.10
56582;BME280;42463;52.214;21.238;2023-07-24T11:01:25;99378.17;;;28.17;38.45
56582;BME280;42463;52.214;21.238;2023-07-24T11:03:32;99378.41;;;28.19;37.85
56582;BME280;42463;52.214;21.238;2023-07-24T11:05:40;99370.52;;;28.22;37.65
56582;BME280;42463;52.214;21.238;2023-07-24T11:07:46;99368.48;;;28.30;37.68